Time;durP1;ratioP1;P1;durP2;ratioP2;P2;SDS_P1;SDS_P2;PMS_P1;PMS_P2;Temp;Humidity;BMP_temperature;BMP_pressure;BME280_temperature;BME280_humidity;BME280_pressure;Samples;Min_cycle;Max_cycle;Signal;HPM_P1;HPM_P2
2021/08/20 00:01:22;;;;;;;8.83;4.60;;;18.50;1.00;;;;;;5073634;28;20438;-78
2021/08/20 00:03:58;;;;;;;5.80;4.00;;;18.60;1.00;;;;;;5069495;28;20260;-78
2021/08/20 00:06:27;;;;;;;5.10;3.60;;;18.60;1.00;;;;;;5062665;28;20408;-78
2021/08/20 00:09:03;;;;;;;7.53;4.40;;;18.60;1.00;;;;;;5074195;28;20375;-78
2021/08/20 00:11:35;;;;;;;8.20;4.50;;;18.50;1.00;;;;;;5075871;28;20384;-78
2021/08/20 00:14:01;;;;;;;5.03;4.00;;;18.50;1.00;;;;;;5076237;28;20367;-78
2021/08/20 00:16:45;;;;;;;6.77;4.27;;;18.50;1.00;;;;;;5076379;28;20392;-78
2021/08/20 00:19:45;;;;;;;7.47;4.53;;;18.40;1.00;;;;;;5069616;28;20193;-77
2021/08/20 00:22:15;;;;;;;7.00;4.53;;;18.30;1.00;;;;;;5056309;28;20388;-77
2021/08/20 00:24:41;;;;;;;12.10;4.80;;;18.30;1.00;;;;;;5059206;28;20402;-77
2021/08/20 00:27:07;;;;;;;7.00;4.87;;;18.20;1.00;;;;;;5076469;28;20367;-77
2021/08/20 00:29:33;;;;;;;9.80;5.40;;;18.20;1.00;;;;;;5076242;28;20559;-77
2021/08/20 00:32:39;;;;;;;12.03;5.03;;;18.10;1.00;;;;;;5076592;28;20176;-79
2021/08/20 00:35:21;;;;;;;8.83;4.80;;;18.10;1.00;;;;;;5075932;28;20376;-78
2021/08/20 00:37:47;;;;;;;6.97;5.07;;;18.00;1.00;;;;;;5075822;28;20450;-79
2021/08/20 00:40:13;;;;;;;7.77;4.57;;;18.00;1.00;;;;;;5075869;28;20375;-78
2021/08/20 00:42:39;;;;;;;6.80;4.90;;;18.00;1.00;;;;;;5076227;28;20152;-78
2021/08/20 00:45:09;;;;;;;8.77;5.60;;;18.00;1.00;;;;;;5075809;28;20365;-78
2021/08/20 00:47:36;;;;;;;5.90;3.97;;;17.90;1.00;;;;;;5076167;28;20841;-78
2021/08/20 00:50:06;;;;;;;9.20;4.80;;;18.00;1.00;;;;;;5074168;28;20789;-78
2021/08/20 00:52:34;;;;;;;7.30;4.40;;;17.90;1.00;;;;;;5074772;28;20418;-78
2021/08/20 00:55:10;;;;;;;6.17;4.67;;;17.90;1.00;;;;;;5075953;28;20417;-78
2021/08/20 00:57:40;;;;;;;9.40;4.83;;;17.90;1.00;;;;;;5074299;28;20810;-78
2021/08/20 01:00:06;;;;;;;6.87;4.67;;;17.90;1.00;;;;;;5063627;28;20440;-78
2021/08/20 01:02:39;;;;;;;9.13;4.90;;;17.80;1.00;;;;;;5072641;28;21028;-78
2021/08/20 01:05:06;;;;;;;7.90;5.00;;;17.80;1.00;;;;;;5070601;28;20419;-78
2021/08/20 01:07:37;;;;;;;6.67;4.53;;;17.80;1.00;;;;;;5067850;28;20419;-78
2021/08/20 01:10:07;;;;;;;5.87;4.53;;;17.80;1.00;;;;;;5073385;28;20439;-78
2021/08/20 01:12:36;;;;;;;7.87;4.53;;;17.80;1.00;;;;;;5075723;28;20400;-78
2021/08/20 01:15:04;;;;;;;5.80;4.17;;;17.80;1.00;;;;;;5075349;28;20411;-78
2021/08/20 01:17:30;;;;;;;5.40;4.23;;;17.80;1.00;;;;;;5075641;28;20434;-78
2021/08/20 01:20:11;;;;;;;17.90;4.47;;;17.80;1.00;;;;;;5075097;28;20448;-78
2021/08/20 01:22:37;;;;;;;5.60;4.47;;;17.70;1.00;;;;;;5074610;28;20160;-78
2021/08/20 01:25:10;;;;;;;6.13;4.20;;;17.70;1.00;;;;;;5074147;28;20394;-78
2021/08/20 01:28:11;;;;;;;4.60;4.20;;;17.70;1.00;;;;;;5074853;28;20191;-78
2021/08/20 01:30:39;;;;;;;4.90;4.30;;;17.70;1.00;;;;;;5052509;28;21049;-78
2021/08/20 01:33:09;;;;;;;10.33;4.33;;;17.70;1.00;;;;;;5036201;28;20496;-78
2021/08/20 01:35:45;;;;;;;6.17;4.93;;;17.60;1.00;;;;;;5052655;28;20399;-78
2021/08/20 01:38:11;;;;;;;11.20;4.60;;;17.60;1.00;;;;;;5052445;28;20466;-78
2021/08/20 01:40:37;;;;;;;4.27;3.70;;;17.60;1.00;;;;;;5039296;28;20420;-78
2021/08/20 01:43:15;;;;;;;7.37;4.57;;;17.50;1.00;;;;;;5032722;28;20173;-78
2021/08/20 01:49:03;;;;;;;6.43;4.93;;;17.60;1.00;;;;;;5013194;28;20981;-77
2021/08/20 01:51:45;;;;;;;8.27;4.60;;;17.60;1.00;;;;;;5012738;28;20391;-77
2021/08/20 01:54:11;;;;;;;5.73;4.67;;;17.60;1.00;;;;;;5011680;28;20558;-78
2021/08/20 01:56:36;;;;;;;8.13;4.27;;;17.60;1.00;;;;;;5023099;28;20448;-78
2021/08/20 01:59:03;;;;;;;7.37;4.63;;;17.60;1.00;;;;;;5028007;28;20222;-77
2021/08/20 02:02:09;;;;;;;6.30;4.90;;;17.60;1.00;;;;;;5029866;28;20189;-78
2021/08/20 02:04:39;;;;;;;4.47;4.03;;;17.70;1.00;;;;;;5043784;28;20733;-78
2021/08/20 02:07:21;;;;;;;5.13;4.40;;;17.70;1.00;;;;;;5074028;28;21243;-78
2021/08/20 02:09:51;;;;;;;4.93;4.13;;;17.70;1.00;;;;;;5074057;28;20870;-78
2021/08/20 02:12:34;;;;;;;6.97;4.20;;;17.80;1.00;;;;;;5057567;28;20379;-78
2021/08/20 02:15:00;;;;;;;6.93;4.60;;;17.80;1.00;;;;;;5054465;28;20366;-78
2021/08/20 02:17:33;;;;;;;5.00;3.90;;;17.70;1.00;;;;;;5065341;28;20429;-78
2021/08/20 02:20:03;;;;;;;4.80;4.30;;;17.70;1.00;;;;;;5072802;28;20172;-78
2021/08/20 02:22:39;;;;;;;6.60;4.40;;;17.70;1.00;;;;;;5074051;28;20858;-77
2021/08/20 02:25:09;;;;;;;10.70;4.30;;;17.70;1.00;;;;;;5073750;28;20877;-77
2021/08/20 02:27:35;;;;;;;9.50;4.73;;;17.70;1.00;;;;;;5074077;28;20384;-77
2021/08/20 02:30:04;;;;;;;7.30;4.70;;;17.70;1.00;;;;;;5073740;28;20373;-77
2021/08/20 02:32:39;;;;;;;7.33;4.10;;;17.80;1.00;;;;;;5074199;28;20204;-77
2021/08/20 02:35:05;;;;;;;7.63;4.13;;;17.80;1.00;;;;;;5073784;28;20415;-77
2021/08/20 02:37:39;;;;;;;13.63;4.03;;;17.80;1.00;;;;;;5074256;28;20742;-77
2021/08/20 02:40:09;;;;;;;4.27;3.70;;;17.80;1.00;;;;;;5073836;28;20640;-77
2021/08/20 02:42:39;;;;;;;7.43;4.40;;;17.80;1.00;;;;;;5073732;28;20478;-77
2021/08/20 02:45:09;;;;;;;9.93;4.50;;;17.80;1.00;;;;;;5073864;28;20948;-77
2021/08/20 02:48:03;;;;;;;5.57;4.23;;;17.80;1.00;;;;;;5073640;28;20752;-77
2021/08/20 02:50:33;;;;;;;6.07;3.70;;;17.80;1.00;;;;;;5053742;28;20926;-78
2021/08/20 02:53:03;;;;;;;5.70;4.27;;;17.80;1.00;;;;;;5053647;28;20726;-78
2021/08/20 02:55:45;;;;;;;6.70;4.07;;;17.70;1.00;;;;;;5053861;28;20704;-78
2021/08/20 02:58:33;;;;;;;5.57;4.20;;;17.70;1.00;;;;;;5053633;28;20411;-78
2021/08/20 03:01:27;;;;;;;8.40;4.43;;;17.60;1.00;;;;;;5058558;28;20429;-78
2021/08/20 03:03:53;;;;;;;7.73;4.57;;;17.50;1.00;;;;;;5062078;28;20377;-78
2021/08/20 03:06:21;;;;;;;6.10;4.50;;;17.50;1.00;;;;;;5067924;28;20433;-77
2021/08/20 03:08:47;;;;;;;7.33;4.50;;;17.50;1.00;;;;;;5073109;28;20409;-77
2021/08/20 03:11:13;;;;;;;8.30;4.40;;;17.50;1.00;;;;;;5063745;28;20807;-77
2021/08/20 03:13:39;;;;;;;6.60;4.70;;;17.50;1.00;;;;;;5069956;28;20224;-78
2021/08/20 03:16:05;;;;;;;6.50;4.53;;;17.50;1.00;;;;;;5067311;28;20465;-78
2021/08/20 03:18:30;;;;;;;5.20;4.00;;;17.40;1.00;;;;;;5064740;28;20673;-77
2021/08/20 03:20:57;;;;;;;5.23;4.33;;;17.40;1.00;;;;;;5067176;28;20434;-78
2021/08/20 03:23:33;;;;;;;4.97;4.03;;;17.40;1.00;;;;;;5053203;28;20650;-77
2021/08/20 03:26:06;;;;;;;6.37;4.70;;;17.40;1.00;;;;;;5062927;28;20423;-77
2021/08/20 03:28:45;;;;;;;5.70;4.27;;;17.50;1.00;;;;;;5052151;28;20847;-77
2021/08/20 03:31:27;;;;;;;5.80;4.87;;;17.40;1.00;;;;;;5068701;28;20818;-77
2021/08/20 03:33:57;;;;;;;6.47;4.40;;;17.40;1.00;;;;;;5066842;28;20425;-78
2021/08/20 03:36:33;;;;;;;7.63;4.90;;;17.40;1.00;;;;;;5073311;28;20908;-78
2021/08/20 03:39:27;;;;;;;7.73;4.33;;;17.40;1.00;;;;;;5073341;28;20960;-78
2021/08/20 03:41:57;;;;;;;5.60;4.30;;;17.30;1.00;;;;;;5061227;28;20394;-78
2021/08/20 03:44:23;;;;;;;5.20;4.40;;;17.30;1.00;;;;;;5053529;28;20389;-78
2021/08/20 03:46:51;;;;;;;7.50;4.63;;;17.20;1.00;;;;;;5052405;28;20376;-78
2021/08/20 03:49:27;;;;;;;8.20;5.33;;;17.20;1.00;;;;;;5069663;28;20172;-78
2021/08/20 03:51:57;;;;;;;6.00;4.87;;;17.10;1.00;;;;;;5063507;28;20748;-78
2021/08/20 03:54:23;;;;;;;6.37;4.80;;;17.00;1.00;;;;;;5065941;28;20388;-78
2021/08/20 03:56:57;;;;;;;6.27;4.73;;;17.00;1.00;;;;;;5076788;28;20418;-78
2021/08/20 03:59:23;;;;;;;7.10;5.23;;;16.90;1.00;;;;;;5075630;28;20945;-78
2021/08/20 04:01:51;;;;;;;6.67;4.53;;;16.90;1.00;;;;;;5066044;28;20411;-78
2021/08/20 04:04:21;;;;;;;15.30;5.33;;;16.80;1.00;;;;;;5071372;28;20168;-77
2021/08/20 04:06:51;;;;;;;7.40;5.00;;;16.80;1.00;;;;;;5076429;28;20856;-78
2021/08/20 04:09:39;;;;;;;11.63;4.77;;;16.70;1.00;;;;;;5076331;28;20795;-77
2021/08/20 04:12:05;;;;;;;7.17;4.70;;;16.60;1.00;;;;;;5073412;28;20431;-77
2021/08/20 04:14:51;;;;;;;8.03;5.30;;;16.60;1.00;;;;;;5076432;28;20788;-76
2021/08/20 04:17:17;;;;;;;9.60;5.57;;;16.50;1.00;;;;;;5076250;28;20494;-77
2021/08/20 04:19:57;;;;;;;7.10;5.40;;;16.50;1.00;;;;;;5076664;28;20393;-77
2021/08/20 04:22:33;;;;;;;12.00;5.63;;;16.40;1.00;;;;;;5070908;28;20198;-77
2021/08/20 04:25:04;;;;;;;6.00;5.23;;;16.30;1.00;;;;;;5071485;28;20389;-76
2021/08/20 04:27:33;;;;;;;9.73;5.60;;;16.30;1.00;;;;;;5054759;28;20396;-76
2021/08/20 04:30:09;;;;;;;11.77;5.87;;;16.20;1.00;;;;;;5066907;28;20417;-76
2021/08/20 04:32:35;;;;;;;21.50;6.37;;;16.20;1.00;;;;;;5068440;28;20510;-76
2021/08/20 04:35:04;;;;;;;8.20;5.70;;;16.10;1.00;;;;;;5076473;28;20523;-77
2021/08/20 04:37:40;;;;;;;8.57;5.80;;;16.10;1.00;;;;;;5074680;28;20190;-77
2021/08/20 04:40:15;;;;;;;14.90;6.33;;;16.00;1.00;;;;;;5075960;28;20432;-77
2021/08/20 04:42:46;;;;;;;10.20;6.60;;;16.00;1.00;;;;;;5069550;28;20701;-78
2021/08/20 04:45:16;;;;;;;9.80;6.80;;;16.00;1.00;;;;;;5056031;28;20362;-78
2021/08/20 04:47:46;;;;;;;10.03;6.30;;;15.90;1.00;;;;;;5055878;28;20395;-77
2021/08/20 04:50:12;;;;;;;12.37;7.30;;;15.90;1.00;;;;;;5056268;28;20402;-77
2021/08/20 04:52:40;;;;;;;11.27;6.63;;;15.90;1.00;;;;;;5061508;28;20921;-77
2021/08/20 04:55:10;;;;;;;10.00;7.23;;;15.90;1.00;;;;;;5071166;28;20396;-77
2021/08/20 04:57:39;;;;;;;8.93;6.83;;;15.90;1.00;;;;;;5056068;28;20427;-78
2021/08/20 05:00:10;;;;;;;11.23;6.90;;;15.90;1.00;;;;;;5075607;28;20935;-77
2021/08/20 05:02:36;;;;;;;9.90;6.73;;;15.90;1.00;;;;;;5060863;28;20439;-78
2021/08/20 05:05:07;;;;;;;12.20;6.70;;;16.00;1.00;;;;;;5055682;28;20397;-77
2021/08/20 05:07:36;;;;;;;10.77;6.70;;;16.00;1.00;;;;;;5073659;28;20411;-77
2021/08/20 05:10:45;;;;;;;10.97;6.67;;;16.00;1.00;;;;;;5075517;28;20773;-82
2021/08/20 05:13:15;;;;;;;10.03;6.37;;;16.00;1.00;;;;;;5056774;28;20422;-81
2021/08/20 05:15:41;;;;;;;16.00;6.90;;;16.20;1.00;;;;;;5054915;28;20391;-80
2021/08/20 05:18:10;;;;;;;9.37;6.63;;;16.20;1.00;;;;;;5073911;28;20463;-82
2021/08/20 05:20:57;;;;;;;10.20;6.17;;;16.30;1.00;;;;;;5071127;28;20183;-80
2021/08/20 05:23:22;;;;;;;8.33;6.03;;;16.50;1.00;;;;;;5057851;28;20502;-78
2021/08/20 05:25:51;;;;;;;10.40;5.80;;;16.50;1.00;;;;;;5065695;28;20471;-78
2021/08/20 05:28:21;;;;;;;6.43;5.47;;;16.60;1.00;;;;;;5072856;28;20673;-77
2021/08/20 05:31:03;;;;;;;11.33;6.40;;;16.70;1.00;;;;;;5063330;28;20444;-77
2021/08/20 05:33:45;;;;;;;10.63;6.07;;;16.80;1.00;;;;;;5059734;28;20888;-77
2021/08/20 05:36:15;;;;;;;9.57;6.07;;;17.00;1.00;;;;;;5058951;28;20852;-77
2021/08/20 05:38:41;;;;;;;9.43;5.80;;;17.00;1.00;;;;;;5059873;28;20454;-85
2021/08/20 05:41:09;;;;;;;8.37;6.40;;;17.30;1.00;;;;;;5072258;28;20388;-83
2021/08/20 05:43:35;;;;;;;8.60;6.33;;;17.40;1.00;;;;;;5065762;28;20181;-84
2021/08/20 05:46:01;;;;;;;9.60;5.80;;;17.40;1.00;;;;;;5066702;28;20433;-85
2021/08/20 05:48:39;;;;;;;6.77;5.10;;;17.50;1.00;;;;;;5069263;28;20410;-83
2021/08/20 05:51:15;;;;;;;10.40;5.40;;;17.60;1.00;;;;;;5053862;28;20563;-84
2021/08/20 05:54:15;;;;;;;11.63;5.53;;;17.60;1.00;;;;;;5054452;28;20829;-83
2021/08/20 05:57:09;;;;;;;7.90;4.77;;;17.50;1.00;;;;;;5053918;28;20967;-83
2021/08/20 05:59:34;;;;;;;5.83;4.43;;;17.50;1.00;;;;;;5072763;28;20412;-84
2021/08/20 06:02:39;;;;;;;7.73;5.33;;;17.50;1.00;;;;;;5073766;28;20388;-83
2021/08/20 06:05:33;;;;;;;18.83;5.07;;;17.60;1.00;;;;;;5061177;28;20155;-84
2021/08/20 06:08:39;;;;;;;8.20;5.30;;;17.60;1.00;;;;;;5060163;28;20983;-84
2021/08/20 06:11:04;;;;;;;11.67;4.77;;;17.60;1.00;;;;;;5072117;28;20437;-85
2021/08/20 06:20:39;;;;;;;5.53;3.90;;;17.90;1.00;;;;;;5067288;28;20980;-84
2021/08/20 06:23:45;;;;;;;3.67;3.37;;;17.90;1.00;;;;;;5053094;28;20423;-83
2021/08/20 06:26:10;;;;;;;4.90;3.87;;;17.90;1.00;;;;;;5085218;28;20422;-76
2021/08/20 06:32:11;;;;;;;4.07;3.67;;;18.20;1.00;;;;;;5061027;28;20204;-87
2021/08/20 06:34:51;;;;;;;3.80;3.47;;;18.30;1.00;;;;;;5054010;28;20409;-88
2021/08/20 06:37:34;;;;;;;6.30;3.80;;;18.50;1.00;;;;;;5062809;28;20417;-85
2021/08/20 06:43:22;;;;;;;5.07;3.33;;;18.80;1.00;;;;;;5056139;28;20419;-84
2021/08/20 06:46:33;;;;;;;3.70;3.27;;;18.80;1.00;;;;;;5060341;28;20432;-85
2021/08/20 06:49:04;;;;;;;3.47;3.10;;;18.90;1.00;;;;;;5066558;28;20432;-83
2021/08/20 06:51:34;;;;;;;3.23;2.93;;;18.90;1.00;;;;;;5073757;28;20428;-85
2021/08/20 06:54:33;;;;;;;4.50;2.80;;;19.00;1.00;;;;;;5065385;28;20403;-84
2021/08/20 06:57:12;;;;;;;3.33;3.03;;;18.90;1.00;;;;;;5056837;28;20380;-85
2021/08/20 06:59:37;;;;;;;4.67;3.17;;;18.90;1.00;;;;;;5064071;28;20447;-81
2021/08/20 07:02:16;;;;;;;5.33;3.43;;;18.90;1.00;;;;;;5059125;28;20414;-77
2021/08/20 07:04:46;;;;;;;3.40;2.93;;;18.90;1.00;;;;;;5086815;28;20225;-77
2021/08/20 07:07:13;;;;;;;3.03;2.73;;;19.00;1.00;;;;;;5092238;28;20378;-77
2021/08/20 07:09:39;;;;;;;3.73;3.00;;;19.10;1.00;;;;;;5073079;28;20515;-77
2021/08/20 07:12:15;;;;;;;3.57;3.00;;;19.20;1.00;;;;;;5073378;28;20430;-77
2021/08/20 07:14:41;;;;;;;3.70;2.50;;;19.10;1.00;;;;;;5071661;28;20398;-77
2021/08/20 07:17:07;;;;;;;4.23;2.80;;;19.10;1.00;;;;;;5060525;28;20421;-77
2021/08/20 07:19:51;;;;;;;3.80;2.60;;;19.30;1.00;;;;;;5070632;28;20189;-77
2021/08/20 07:22:33;;;;;;;3.40;3.10;;;19.30;1.00;;;;;;5072021;28;20275;-77
2021/08/20 07:24:59;;;;;;;4.23;3.50;;;19.30;1.00;;;;;;5075888;28;20772;-77
2021/08/20 07:27:25;;;;;;;3.43;2.90;;;19.40;1.00;;;;;;5077232;28;20371;-77
2021/08/20 07:29:57;;;;;;;3.23;2.93;;;19.40;1.00;;;;;;5087995;28;20181;-77
2021/08/20 07:32:27;;;;;;;3.40;3.10;;;19.50;1.00;;;;;;5089290;28;20880;-77
2021/08/20 07:34:53;;;;;;;4.60;2.77;;;19.70;1.00;;;;;;5068625;28;20406;-77
2021/08/20 07:37:19;;;;;;;2.47;2.37;;;19.60;1.00;;;;;;5064632;28;20741;-77
2021/08/20 07:39:44;;;;;;;5.30;2.63;;;19.90;1.00;;;;;;5074006;28;20172;-77
2021/08/20 07:42:10;;;;;;;4.23;3.20;;;20.00;1.00;;;;;;5075558;28;20187;-77
2021/08/20 07:44:46;;;;;;;5.80;3.20;;;20.00;1.00;;;;;;5069813;28;20168;-77
2021/08/20 07:47:15;;;;;;;6.57;3.20;;;20.40;1.00;;;;;;5063609;28;20174;-77
2021/08/20 07:49:45;;;;;;;5.27;3.40;;;20.50;1.00;;;;;;5072044;28;20435;-77
2021/08/20 07:52:11;;;;;;;4.23;3.07;;;20.50;1.00;;;;;;5056083;28;20802;-77
2021/08/20 07:54:39;;;;;;;3.37;2.80;;;20.70;1.00;;;;;;5056401;28;20420;-77
2021/08/20 07:57:21;;;;;;;2.73;2.40;;;20.70;1.00;;;;;;5057041;28;20505;-77
2021/08/20 07:59:47;;;;;;;10.83;2.63;;;20.70;1.00;;;;;;5058515;28;20440;-77
2021/08/20 08:02:15;;;;;;;3.57;2.70;;;20.70;1.00;;;;;;5063769;28;20912;-77
2021/08/20 08:04:45;;;;;;;9.10;3.13;;;20.60;1.00;;;;;;5056046;28;20685;-77
2021/08/20 08:07:27;;;;;;;8.13;3.13;;;20.50;1.00;;;;;;5063577;28;20483;-77
2021/08/20 08:09:53;;;;;;;4.30;2.80;;;20.40;1.00;;;;;;5069891;28;20417;-77
2021/08/20 08:12:21;;;;;;;8.10;2.63;;;20.30;1.00;;;;;;5069941;28;20423;-77
2021/08/20 08:14:51;;;;;;;9.57;3.80;;;20.30;1.00;;;;;;5056137;28;20588;-77
2021/08/20 08:17:17;;;;;;;4.93;2.90;;;20.30;1.00;;;;;;5056400;28;20877;-77
2021/08/20 08:19:45;;;;;;;3.60;2.80;;;20.50;1.00;;;;;;5058082;28;20431;-77
2021/08/20 08:22:11;;;;;;;3.97;2.97;;;20.50;1.00;;;;;;5056842;28;20676;-77
2021/08/20 08:24:39;;;;;;;3.50;3.13;;;20.50;1.00;;;;;;5056075;28;20399;-77
2021/08/20 08:27:21;;;;;;;4.97;3.47;;;20.50;1.00;;;;;;5070294;28;20185;-77
2021/08/20 08:29:51;;;;;;;3.27;2.90;;;20.50;1.00;;;;;;5075728;28;20789;-77
2021/08/20 08:32:17;;;;;;;3.20;2.90;;;20.60;1.00;;;;;;5069423;28;20466;-78
2021/08/20 08:34:51;;;;;;;3.00;2.70;;;20.60;1.00;;;;;;5056184;28;21147;-77
2021/08/20 08:37:22;;;;;;;4.63;2.67;;;20.70;1.00;;;;;;5075877;28;20159;-77
2021/08/20 08:39:47;;;;;;;7.33;2.33;;;20.70;1.00;;;;;;5072789;28;20410;-77
2021/08/20 08:42:16;;;;;;;3.17;2.87;;;20.80;1.00;;;;;;5070265;28;20956;-77
2021/08/20 08:44:42;;;;;;;7.27;3.00;;;20.80;1.00;;;;;;5055891;28;20158;-77
2021/08/20 08:47:14;;;;;;;3.10;2.80;;;20.80;1.00;;;;;;5061491;28;20467;-77
2021/08/20 08:49:42;;;;;;;4.50;2.93;;;21.00;1.00;;;;;;5075251;28;20397;-77
2021/08/20 08:52:09;;;;;;;5.40;2.57;;;21.00;1.00;;;;;;5072490;28;20411;-77
2021/08/20 08:54:40;;;;;;;2.77;2.40;;;21.10;1.00;;;;;;5062444;28;20490;-76
2021/08/20 08:57:09;;;;;;;3.50;2.70;;;21.20;1.00;;;;;;5065779;28;20410;-82
2021/08/20 08:59:45;;;;;;;3.07;2.20;;;21.20;1.00;;;;;;5075030;28;20939;-81
2021/08/20 09:02:22;;;;;;;2.63;2.43;;;21.30;1.00;;;;;;5074887;28;20863;-81
2021/08/20 09:05:05;;;;;;;5.73;2.00;;;21.60;1.00;;;;;;5058415;28;20386;-81
2021/08/20 09:07:35;;;;;;;3.03;2.17;;;22.00;1.00;;;;;;5075098;28;20389;-80
2021/08/20 09:10:16;;;;;;;5.23;2.43;;;22.40;1.00;;;;;;5054983;28;20455;-80
2021/08/20 09:13:02;;;;;;;3.60;1.87;;;22.60;1.00;;;;;;5053832;28;20946;-79
2021/08/20 09:15:32;;;;;;;4.43;2.27;;;22.70;1.00;;;;;;5069660;28;20806;-79
2021/08/20 09:18:00;;;;;;;2.80;2.40;;;23.20;1.00;;;;;;5061348;28;20503;-79
2021/08/20 09:20:30;;;;;;;2.27;2.03;;;23.30;1.00;;;;;;5074466;28;20425;-76
2021/08/20 09:23:01;;;;;;;2.20;2.10;;;23.30;1.00;;;;;;5071108;28;20535;-76
2021/08/20 09:25:57;;;;;;;2.90;2.40;;;23.40;1.00;;;;;;5063852;28;20425;-75
2021/08/20 09:28:33;;;;;;;2.80;2.10;;;23.60;1.00;;;;;;5074697;28;20830;-75
2021/08/20 09:31:08;;;;;;;2.47;1.90;;;23.70;1.00;;;;;;5074628;28;20458;-75
2021/08/20 09:33:49;;;;;;;2.90;2.17;;;23.30;1.00;;;;;;5070370;28;20418;-75
2021/08/20 09:36:22;;;;;;;4.20;2.30;;;23.20;1.00;;;;;;5060322;28;20508;-76
2021/08/20 09:38:53;;;;;;;2.80;2.30;;;23.20;1.00;;;;;;5074029;28;20869;-72
2021/08/20 09:41:30;;;;;;;3.13;2.50;;;23.20;1.00;;;;;;5064147;28;20426;-73
2021/08/20 09:44:02;;;;;;;2.17;2.00;;;23.10;1.00;;;;;;5066209;28;20441;-73
2021/08/20 09:46:42;;;;;;;3.10;2.30;;;23.00;1.00;;;;;;5070017;28;20427;-73
2021/08/20 09:49:16;;;;;;;3.30;2.17;;;23.00;1.00;;;;;;5061029;28;20920;-83
2021/08/20 09:51:50;;;;;;;4.43;2.40;;;22.90;1.00;;;;;;5082058;28;20789;-82
2021/08/20 09:54:22;;;;;;;2.83;2.57;;;22.90;1.00;;;;;;5066249;28;20476;-82
2021/08/20 09:56:48;;;;;;;2.50;2.30;;;22.90;1.00;;;;;;5053388;28;20398;-83
2021/08/20 09:59:14;;;;;;;3.03;2.10;;;22.80;1.00;;;;;;5053191;28;20482;-82
2021/08/20 10:02:27;;;;;;;4.27;2.60;;;22.70;1.00;;;;;;5063406;28;20192;-81
2021/08/20 10:04:59;;;;;;;4.10;2.40;;;22.80;1.00;;;;;;5059575;28;20493;-81
2021/08/20 10:07:40;;;;;;;2.53;2.33;;;22.80;1.00;;;;;;5072021;28;20459;-78
2021/08/20 10:10:08;;;;;;;5.47;2.63;;;22.80;1.00;;;;;;5062675;28;20432;-81
2021/08/20 10:12:41;;;;;;;4.90;2.80;;;22.90;1.00;;;;;;5072122;28;20422;-81
2021/08/20 10:15:10;;;;;;;3.53;2.50;;;23.00;1.00;;;;;;5072937;28;20435;-81
2021/08/20 10:17:46;;;;;;;3.70;2.60;;;23.00;1.00;;;;;;5068621;28;20461;-81
2021/08/20 10:20:27;;;;;;;5.80;2.70;;;23.10;1.00;;;;;;5071329;28;20412;-81
2021/08/20 10:22:57;;;;;;;4.00;2.60;;;23.10;1.00;;;;;;5064912;28;20430;-82
2021/08/20 10:25:33;;;;;;;6.17;3.07;;;23.20;1.00;;;;;;5071089;28;20885;-82
2021/08/20 10:28:31;;;;;;;4.50;2.57;;;23.10;1.00;;;;;;5054789;28;20471;-81
2021/08/20 10:31:33;;;;;;;5.90;3.10;;;23.10;1.00;;;;;;5027327;28;20474;-81
2021/08/20 10:33:59;;;;;;;4.27;2.33;;;23.10;1.00;;;;;;5031004;28;20441;-81
2021/08/20 10:36:45;;;;;;;2.83;2.33;;;23.20;1.00;;;;;;5030937;28;20434;-81
2021/08/20 10:39:27;;;;;;;3.77;2.80;;;23.40;1.00;;;;;;5031506;28;20215;-81
2021/08/20 10:42:06;;;;;;;8.63;2.83;;;23.60;1.00;;;;;;5026759;28;20437;-80
2021/08/20 10:45:06;;;;;;;5.93;2.80;;;23.70;1.00;;;;;;5031412;28;20401;-80
2021/08/20 10:47:34;;;;;;;2.53;2.20;;;24.00;1.00;;;;;;5031651;28;20816;-81
2021/08/20 10:50:12;;;;;;;2.80;2.20;;;24.50;1.00;;;;;;5034366;28;20435;-82
2021/08/20 10:52:43;;;;;;;6.17;2.70;;;24.60;1.00;;;;;;5017360;28;20826;-82
2021/08/20 10:55:21;;;;;;;3.00;2.60;;;24.70;1.00;;;;;;5031794;28;20404;-79
2021/08/20 10:57:55;;;;;;;2.70;2.50;;;24.80;1.00;;;;;;5018211;28;20842;-78
2021/08/20 11:00:31;;;;;;;3.03;2.70;;;24.70;1.00;;;;;;5030876;28;20441;-79
2021/08/20 11:03:06;;;;;;;3.00;2.70;;;24.80;1.00;;;;;;5035234;28;20507;-79
2021/08/20 11:05:41;;;;;;;4.37;2.40;;;24.90;1.00;;;;;;5029028;28;20419;-79
2021/08/20 11:08:28;;;;;;;6.97;2.63;;;25.10;1.00;;;;;;5069128;28;20810;-79
2021/08/20 11:10:55;;;;;;;2.10;1.90;;;25.10;1.00;;;;;;5068024;28;20434;-80
2021/08/20 11:13:21;;;;;;;2.60;2.30;;;25.30;1.00;;;;;;5073722;28;20518;-79
2021/08/20 11:15:53;;;;;;;2.70;2.33;;;25.40;1.00;;;;;;5074633;28;20850;-79
2021/08/20 11:18:40;;;;;;;2.60;2.10;;;25.50;1.00;;;;;;5074503;28;20202;-79
2021/08/20 11:21:06;;;;;;;2.33;2.20;;;25.70;1.00;;;;;;5074785;28;20427;-79
2021/08/20 11:23:31;;;;;;;3.37;2.50;;;25.90;1.00;;;;;;5062677;28;20415;-81
2021/08/20 11:25:57;;;;;;;2.33;2.00;;;26.10;1.00;;;;;;5056648;28;20181;-81
2021/08/20 11:28:28;;;;;;;2.70;2.43;;;26.10;1.00;;;;;;5056724;28;20178;-81
2021/08/20 11:31:07;;;;;;;2.60;2.37;;;26.40;1.00;;;;;;5062821;28;20825;-81
2021/08/20 11:33:44;;;;;;;3.70;2.80;;;26.50;1.00;;;;;;5074788;28;20447;-82
2021/08/20 11:36:18;;;;;;;2.23;2.13;;;26.60;1.00;;;;;;5073518;28;20466;-84
2021/08/20 11:38:53;;;;;;;5.43;2.73;;;26.80;1.00;;;;;;5062883;28;20865;-83
2021/08/20 11:44:05;;;;;;;13.50;2.23;;;26.80;1.00;;;;;;5061002;28;20422;-84
2021/08/20 11:46:37;;;;;;;5.80;2.80;;;26.80;1.00;;;;;;5054350;28;20936;-84
2021/08/20 11:49:03;;;;;;;3.20;2.60;;;26.80;1.00;;;;;;5071366;28;20413;-83
2021/08/20 11:51:35;;;;;;;3.30;2.30;;;26.70;1.00;;;;;;5057338;28;20862;-84
2021/08/20 11:54:09;;;;;;;5.40;2.60;;;26.30;1.00;;;;;;5069608;28;20452;-83
2021/08/20 11:56:37;;;;;;;2.73;2.40;;;26.30;1.00;;;;;;5067870;28;20445;-81
2021/08/20 11:59:12;;;;;;;2.60;2.40;;;26.50;1.00;;;;;;5066254;28;20463;-81
2021/08/20 12:01:40;;;;;;;2.73;2.53;;;26.70;1.00;;;;;;5064751;28;20445;-81
2021/08/20 12:04:06;;;;;;;2.53;2.33;;;27.20;1.00;;;;;;5074619;28;20780;-81
2021/08/20 12:06:33;;;;;;;3.10;2.43;;;27.20;1.00;;;;;;5074523;28;20425;-81
2021/08/20 12:09:18;;;;;;;3.40;2.53;;;27.40;1.00;;;;;;5063532;28;20429;-81
2021/08/20 12:11:58;;;;;;;2.20;2.03;;;27.20;1.00;;;;;;5068819;28;20478;-81
2021/08/20 12:14:34;;;;;;;13.20;2.50;;;27.10;1.00;;;;;;5069753;28;20626;-84
2021/08/20 12:17:23;;;;;;;3.63;2.77;;;27.00;1.00;;;;;;5062064;28;20413;-79
2021/08/20 12:19:58;;;;;;;4.13;2.00;;;26.90;1.00;;;;;;5069694;28;20422;-79
2021/08/20 12:22:36;;;;;;;2.20;1.87;;;26.80;1.00;;;;;;5054337;28;20411;-78
2021/08/20 12:25:24;;;;;;;2.00;1.90;;;26.90;1.00;;;;;;5054951;28;20488;-79
2021/08/20 12:27:54;;;;;;;10.83;2.43;;;26.90;1.00;;;;;;5081098;28;20446;-79
2021/08/20 12:30:25;;;;;;;2.50;2.20;;;26.90;1.00;;;;;;5071182;28;20424;-80
2021/08/20 12:33:10;;;;;;;6.13;2.63;;;27.00;1.00;;;;;;5064302;28;20430;-79
2021/08/20 12:35:50;;;;;;;2.40;2.20;;;27.20;1.00;;;;;;5075387;28;21052;-78
2021/08/20 12:38:33;;;;;;;2.70;2.03;;;27.30;1.00;;;;;;5070424;28;20452;-79
2021/08/20 12:41:03;;;;;;;2.63;2.43;;;27.50;1.00;;;;;;5064378;28;20427;-80
2021/08/20 12:43:38;;;;;;;6.00;1.90;;;27.70;1.00;;;;;;5063064;28;20413;-78
2021/08/20 12:46:14;;;;;;;5.83;2.07;;;27.80;1.00;;;;;;5068548;28;20477;-79
2021/08/20 12:49:05;;;;;;;2.10;2.00;;;27.80;1.00;;;;;;5066735;28;20449;-78
2021/08/20 12:51:32;;;;;;;3.20;2.10;;;27.70;1.00;;;;;;5050260;28;20928;-78
2021/08/20 12:54:33;;;;;;;3.80;2.17;;;27.70;1.00;;;;;;5066349;28;20414;-78
2021/08/20 12:57:04;;;;;;;2.47;1.80;;;27.60;1.00;;;;;;5063075;28;20468;-79
2021/08/20 12:59:29;;;;;;;2.10;2.00;;;27.50;1.00;;;;;;5054147;28;20446;-79
2021/08/20 13:01:57;;;;;;;6.23;1.87;;;27.60;1.00;;;;;;5081355;28;20508;-79
2021/08/20 13:04:27;;;;;;;8.23;2.37;;;27.70;1.00;;;;;;5074018;28;20163;-79
2021/08/20 13:06:57;;;;;;;3.73;1.57;;;27.80;1.00;;;;;;5059116;28;20415;-78
2021/08/20 13:10:03;;;;;;;4.23;2.00;;;27.80;1.00;;;;;;5055424;28;20410;-78
2021/08/20 13:12:34;;;;;;;2.73;1.90;;;27.80;1.00;;;;;;5060239;28;20423;-83
2021/08/20 13:14:59;;;;;;;4.07;2.00;;;27.90;1.00;;;;;;5054896;28;20886;-83
2021/08/20 13:17:27;;;;;;;3.13;2.00;;;28.00;1.00;;;;;;5065460;28;20420;-83
2021/08/20 13:19:57;;;;;;;7.13;2.10;;;28.00;1.00;;;;;;5072809;28;20503;-83
2021/08/20 13:22:28;;;;;;;4.80;2.07;;;28.10;1.00;;;;;;5053324;28;20416;-83
2021/08/20 13:25:04;;;;;;;1.90;1.80;;;28.30;1.00;;;;;;5055191;28;20396;-83
2021/08/20 13:27:33;;;;;;;3.60;2.27;;;28.40;1.00;;;;;;5054936;28;20778;-82
2021/08/20 13:30:04;;;;;;;2.33;2.13;;;28.90;1.00;;;;;;5053347;28;20418;-83
2021/08/20 13:32:34;;;;;;;1.30;1.20;;;28.90;1.00;;;;;;5074799;28;20472;-82
2021/08/20 13:35:05;;;;;;;2.90;1.30;;;29.10;1.00;;;;;;5074411;28;20397;-82
2021/08/20 13:37:34;;;;;;;4.27;1.70;;;29.20;1.00;;;;;;5055247;28;20442;-81
2021/08/20 13:39:59;;;;;;;2.60;1.50;;;29.30;1.00;;;;;;5061945;28;20401;-79
2021/08/20 13:42:25;;;;;;;3.13;1.93;;;29.10;1.00;;;;;;5059985;28;20511;-78
2021/08/20 13:44:52;;;;;;;1.50;1.40;;;28.50;1.00;;;;;;5054450;28;20210;-78
2021/08/20 13:47:33;;;;;;;2.43;1.27;;;28.40;1.00;;;;;;5054290;28;20168;-78
2021/08/20 13:50:04;;;;;;;2.23;1.63;;;28.50;1.00;;;;;;5066225;28;20790;-78